sensor_id;sensor_type;location;lat;lon;timestamp;P1;durP1;ratioP1;P2;durP2;ratioP2
39276;SDS011;63149;48.086;-1.606;2023-02-01T06:02:33;22.08;;;4.15;;
39276;SDS011;63149;48.086;-1.606;2023-02-01T06:05:00;22.02;;;4.80;;
39276;SDS011;63149;48.086;-1.606;2023-02-01T06:07:27;29.27;;;4.80;;
39276;SDS011;63149;48.086;-1.606;2023-02-01T06:09:54;25.20;;;3.85;;
39276;SDS011;63149;48.086;-1.606;2023-02-01T06:12:21;28.70;;;4.32;;
39276;SDS011;63149;48.086;-1.606;2023-02-01T06:14:48;28.33;;;4.15;;
39276;SDS011;63149;48.086;-1.606;2023-02-01T06:17:15;27.40;;;5.57;;
39276;SDS011;63149;48.086;-1.606;2023-02-01T06:19:43;32.03;;;4.55;;
39276;SDS011;63149;48.086;-1.606;2023-02-01T06:22:10;24.98;;;4.50;;
39276;SDS011;63149;48.086;-1.606;2023-02-01T06:24:37;24.60;;;4.40;;
39276;SDS011;63149;48.086;-1.606;2023-02-01T06:27:04;27.90;;;4.13;;
39276;SDS011;63149;48.086;-1.606;2023-02-01T06:29:31;25.52;;;4.50;;
39276;SDS011;63149;48.086;-1.606;2023-02-01T06:31:58;24.77;;;3.20;;
39276;SDS011;63149;48.086;-1.606;2023-02-01T06:34:25;22.27;;;4.15;;
39276;SDS011;63149;48.086;-1.606;2023-02-01T06:36:54;21.80;;;4.32;;
39276;SDS011;63149;48.086;-1.606;2023-02-01T06:39:21;21.65;;;3.85;;
39276;SDS011;63149;48.086;-1.606;2023-02-01T06:41:48;24.77;;;3.75;;
39276;SDS011;63149;48.086;-1.606;2023-02-01T06:44:15;25.48;;;4.75;;
39276;SDS011;63149;48.086;-1.606;2023-02-01T06:46:43;25.83;;;4.43;;
39276;SDS011;63149;48.086;-1.606;2023-02-01T06:49:09;27.75;;;5.28;;
39276;SDS011;63149;48.086;-1.606;2023-02-01T06:51:36;30.02;;;4.65;;
39276;SDS011;63149;48.086;-1.606;2023-02-01T06:54:05;23.73;;;4.15;;
39276;SDS011;63149;48.086;-1.606;2023-02-01T06:56:32;18.17;;;3.47;;
39276;SDS011;63149;48.086;-1.606;2023-02-01T06:58:58;24.77;;;4.53;;
39276;SDS011;63149;48.086;-1.606;2023-02-01T07:01:26;28.88;;;5.38;;
39276;SDS011;63149;48.086;-1.606;2023-02-01T07:03:53;39.92;;;5.45;;
39276;SDS011;63149;48.086;-1.606;2023-02-01T07:06:20;26.33;;;5.28;;
39276;SDS011;63149;48.086;-1.606;2023-02-01T07:08:47;31.92;;;6.13;;
39276;SDS011;63149;48.086;-1.606;2023-02-01T07:11:16;23.70;;;4.47;;
39276;SDS011;63149;48.086;-1.606;2023-02-01T07:13:44;27.83;;;5.18;;
39276;SDS011;63149;48.086;-1.606;2023-02-01T07:16:12;23.33;;;3.60;;
39276;SDS011;63149;48.086;-1.606;2023-02-01T07:18:41;30.90;;;3.70;;
39276;SDS011;63149;48.086;-1.606;2023-02-01T07:21:08;36.90;;;5.13;;
39276;SDS011;63149;48.086;-1.606;2023-02-01T07:23:35;39.00;;;4.35;;
39276;SDS011;63149;48.086;-1.606;2023-02-01T07:26:03;23.77;;;3.95;;
39276;SDS011;63149;48.086;-1.606;2023-02-01T07:28:33;22.73;;;4.05;;
39276;SDS011;63149;48.086;-1.606;2023-02-01T07:31:02;27.13;;;4.05;;
39276;SDS011;63149;48.086;-1.606;2023-02-01T07:33:30;27.60;;;4.65;;
39276;SDS011;63149;48.086;-1.606;2023-02-01T07:35:57;36.13;;;4.50;;
39276;SDS011;63149;48.086;-1.606;2023-02-01T07:38:26;28.40;;;5.15;;
39276;SDS011;63149;48.086;-1.606;2023-02-01T07:40:56;27.45;;;4.15;;
39276;SDS011;63149;48.086;-1.606;2023-02-01T07:43:24;15.88;;;3.40;;
39276;SDS011;63149;48.086;-1.606;2023-02-01T07:45:53;23.17;;;5.78;;
39276;SDS011;63149;48.086;-1.606;2023-02-01T07:48:21;34.78;;;5.35;;
39276;SDS011;63149;48.086;-1.606;2023-02-01T07:50:56;38.35;;;4.75;;
39276;SDS011;63149;48.086;-1.606;2023-02-01T07:53:23;22.15;;;3.97;;
39276;SDS011;63149;48.086;-1.606;2023-02-01T07:55:50;31.75;;;5.43;;
39276;SDS011;63149;48.086;-1.606;2023-02-01T07:58:17;31.05;;;4.82;;
39276;SDS011;63149;48.086;-1.606;2023-02-01T08:00:44;31.73;;;5.00;;
39276;SDS011;63149;48.086;-1.606;2023-02-01T08:03:29;26.85;;;4.38;;
39276;SDS011;63149;48.086;-1.606;2023-02-01T08:05:55;24.00;;;4.03;;
39276;SDS011;63149;48.086;-1.606;2023-02-01T08:08:22;26.58;;;5.05;;
39276;SDS011;63149;48.086;-1.606;2023-02-01T08:10:50;30.33;;;5.90;;
39276;SDS011;63149;48.086;-1.606;2023-02-01T08:13:17;26.55;;;4.38;;
39276;SDS011;63149;48.086;-1.606;2023-02-01T08:15:43;27.73;;;4.93;;
39276;SDS011;63149;48.086;-1.606;2023-02-01T08:18:10;22.88;;;5.10;;
39276;SDS011;63149;48.086;-1.606;2023-02-01T08:20:42;23.58;;;4.43;;
39276;SDS011;63149;48.086;-1.606;2023-02-01T08:23:10;22.77;;;4.88;;
39276;SDS011;63149;48.086;-1.606;2023-02-01T08:25:38;26.60;;;4.50;;
39276;SDS011;63149;48.086;-1.606;2023-02-01T08:28:05;35.00;;;6.03;;
39276;SDS011;63149;48.086;-1.606;2023-02-01T08:30:32;16.92;;;3.85;;
39276;SDS011;63149;48.086;-1.606;2023-02-01T08:32:59;25.08;;;5.95;;
39276;SDS011;63149;48.086;-1.606;2023-02-01T08:35:26;40.28;;;9.52;;
39276;SDS011;63149;48.086;-1.606;2023-02-01T08:37:54;48.17;;;15.35;;
39276;SDS011;63149;48.086;-1.606;2023-02-01T08:40:21;45.50;;;15.13;;
39276;SDS011;63149;48.086;-1.606;2023-02-01T08:42:48;37.00;;;9.57;;
39276;SDS011;63149;48.086;-1.606;2023-02-01T08:45:19;28.77;;;11.60;;
39276;SDS011;63149;48.086;-1.606;2023-02-01T08:47:46;23.58;;;7.05;;
39276;SDS011;63149;48.086;-1.606;2023-02-01T08:50:13;29.98;;;6.60;;
39276;SDS011;63149;48.086;-1.606;2023-02-01T08:52:41;28.42;;;7.40;;
39276;SDS011;63149;48.086;-1.606;2023-02-01T08:55:09;24.00;;;4.28;;
39276;SDS011;63149;48.086;-1.606;2023-02-01T08:57:37;27.48;;;5.15;;
39276;SDS011;63149;48.086;-1.606;2023-02-01T09:00:05;28.67;;;4.82;;
39276;SDS011;63149;48.086;-1.606;2023-02-01T09:02:35;27.88;;;5.00;;
39276;SDS011;63149;48.086;-1.606;2023-02-01T09:05:02;30.48;;;5.40;;
39276;SDS011;63149;48.086;-1.606;2023-02-01T09:07:29;25.55;;;6.25;;
39276;SDS011;63149;48.086;-1.606;2023-02-01T09:09:56;27.50;;;5.35;;
39276;SDS011;63149;48.086;-1.606;2023-02-01T09:12:27;39.65;;;7.03;;
39276;SDS011;63149;48.086;-1.606;2023-02-01T09:14:55;33.67;;;6.28;;
39276;SDS011;63149;48.086;-1.606;2023-02-01T09:17:22;29.52;;;6.35;;
39276;SDS011;63149;48.086;-1.606;2023-02-01T09:19:49;29.38;;;6.22;;
39276;SDS011;63149;48.086;-1.606;2023-02-01T09:22:16;30.73;;;5.05;;
39276;SDS011;63149;48.086;-1.606;2023-02-01T09:24:43;31.23;;;4.68;;
39276;SDS011;63149;48.086;-1.606;2023-02-01T09:27:10;26.52;;;4.60;;
39276;SDS011;63149;48.086;-1.606;2023-02-01T09:29:38;43.60;;;5.90;;
39276;SDS011;63149;48.086;-1.606;2023-02-01T09:32:05;27.30;;;5.93;;
39276;SDS011;63149;48.086;-1.606;2023-02-01T09:34:32;36.13;;;6.57;;
39276;SDS011;63149;48.086;-1.606;2023-02-01T09:37:00;27.75;;;4.68;;
39276;SDS011;63149;48.086;-1.606;2023-02-01T09:39:27;26.30;;;4.88;;
39276;SDS011;63149;48.086;-1.606;2023-02-01T09:41:56;28.05;;;5.13;;
39276;SDS011;63149;48.086;-1.606;2023-02-01T09:44:35;20.42;;;4.95;;
39276;SDS011;63149;48.086;-1.606;2023-02-01T09:47:27;28.73;;;4.82;;
39276;SDS011;63149;48.086;-1.606;2023-02-01T09:49:55;28.40;;;4.55;;
39276;SDS011;63149;48.086;-1.606;2023-02-01T09:52:28;28.38;;;4.30;;
39276;SDS011;63149;48.086;-1.606;2023-02-01T09:54:59;27.27;;;5.38;;
39276;SDS011;63149;48.086;-1.606;2023-02-01T09:57:33;21.30;;;3.95;;
39276;SDS011;63149;48.086;-1.606;2023-02-01T10:00:12;35.90;;;4.53;;
39276;SDS011;63149;48.086;-1.606;2023-02-01T10:02:45;28.25;;;4.90;;
39276;SDS011;63149;48.086;-1.606;2023-02-01T10:05:12;31.13;;;4.50;;
39276;SDS011;63149;48.086;-1.606;2023-02-01T10:07:43;41.25;;;6.70;;
39276;SDS011;63149;48.086;-1.606;2023-02-01T10:10:25;23.50;;;4.70;;
39276;SDS011;63149;48.086;-1.606;2023-02-01T10:13:06;34.65;;;5.07;;
39276;SDS011;63149;48.086;-1.606;2023-02-01T10:15:50;31.58;;;4.72;;
39276;SDS011;63149;48.086;-1.606;2023-02-01T10:18:37;24.80;;;4.70;;
39276;SDS011;63149;48.086;-1.606;2023-02-01T10:21:19;25.70;;;4.65;;
39276;SDS011;63149;48.086;-1.606;2023-02-01T10:24:17;31.08;;;4.25;;
39276;SDS011;63149;48.086;-1.606;2023-02-01T10:26:56;41.45;;;5.55;;
39276;SDS011;63149;48.086;-1.606;2023-02-01T10:29:30;22.45;;;3.90;;
39276;SDS011;63149;48.086;-1.606;2023-02-01T10:32:02;26.33;;;4.45;;
39276;SDS011;63149;48.086;-1.606;2023-02-01T10:34:48;26.92;;;4.22;;
39276;SDS011;63149;48.086;-1.606;2023-02-01T10:37:23;24.88;;;3.88;;
39276;SDS011;63149;48.086;-1.606;2023-02-01T10:39:53;20.98;;;3.67;;
39276;SDS011;63149;48.086;-1.606;2023-02-01T10:42:24;27.88;;;4.18;;
39276;SDS011;63149;48.086;-1.606;2023-02-01T10:44:53;23.27;;;4.60;;
39276;SDS011;63149;48.086;-1.606;2023-02-01T10:47:22;29.30;;;3.97;;
39276;SDS011;63149;48.086;-1.606;2023-02-01T10:49:52;32.13;;;4.53;;
39276;SDS011;63149;48.086;-1.606;2023-02-01T10:52:26;25.65;;;4.38;;
39276;SDS011;63149;48.086;-1.606;2023-02-01T10:58:04;28.10;;;4.32;;
39276;SDS011;63149;48.086;-1.606;2023-02-01T11:00:38;29.45;;;5.60;;
39276;SDS011;63149;48.086;-1.606;2023-02-01T11:06:03;29.43;;;4.83;;
39276;SDS011;63149;48.086;-1.606;2023-02-01T11:08:41;28.88;;;4.80;;
39276;SDS011;63149;48.086;-1.606;2023-02-01T11:11:10;29.05;;;5.18;;
39276;SDS011;63149;48.086;-1.606;2023-02-01T11:13:38;17.15;;;3.50;;
39276;SDS011;63149;48.086;-1.606;2023-02-01T11:16:06;34.90;;;5.43;;
39276;SDS011;63149;48.086;-1.606;2023-02-01T11:18:37;30.27;;;4.93;;
39276;SDS011;63149;48.086;-1.606;2023-02-01T11:21:06;25.95;;;4.65;;
39276;SDS011;63149;48.086;-1.606;2023-02-01T11:23:39;35.30;;;4.50;;
39276;SDS011;63149;48.086;-1.606;2023-02-01T11:26:11;31.38;;;5.30;;
39276;SDS011;63149;48.086;-1.606;2023-02-01T11:28:50;18.17;;;4.55;;
39276;SDS011;63149;48.086;-1.606;2023-02-01T11:31:19;28.27;;;6.15;;
39276;SDS011;63149;48.086;-1.606;2023-02-01T11:33:48;28.42;;;6.18;;
39276;SDS011;63149;48.086;-1.606;2023-02-01T11:36:20;34.10;;;6.50;;
39276;SDS011;63149;48.086;-1.606;2023-02-01T11:41:21;30.30;;;5.82;;
39276;SDS011;63149;48.086;-1.606;2023-02-01T11:43:50;28.52;;;6.30;;
39276;SDS011;63149;48.086;-1.606;2023-02-01T11:46:19;22.30;;;5.65;;
39276;SDS011;63149;48.086;-1.606;2023-02-01T11:48:52;27.67;;;4.82;;
39276;SDS011;63149;48.086;-1.606;2023-02-01T11:51:24;25.60;;;6.82;;
39276;SDS011;63149;48.086;-1.606;2023-02-01T11:54:08;26.80;;;5.07;;
39276;SDS011;63149;48.086;-1.606;2023-02-01T11:56:53;25.52;;;5.00;;
39276;SDS011;63149;48.086;-1.606;2023-02-01T11:59:45;29.17;;;5.13;;
39276;SDS011;63149;48.086;-1.606;2023-02-01T12:05:25;23.05;;;6.05;;
39276;SDS011;63149;48.086;-1.606;2023-02-01T12:08:08;25.85;;;6.00;;
39276;SDS011;63149;48.086;-1.606;2023-02-01T12:10:48;27.77;;;4.72;;
39276;SDS011;63149;48.086;-1.606;2023-02-01T12:13:27;25.67;;;4.38;;
39276;SDS011;63149;48.086;-1.606;2023-02-01T12:16:09;21.58;;;5.03;;
39276;SDS011;63149;48.086;-1.606;2023-02-01T12:18:57;28.30;;;4.55;;
39276;SDS011;63149;48.086;-1.606;2023-02-01T12:21:41;32.33;;;5.05;;
39276;SDS011;63149;48.086;-1.606;2023-02-01T12:24:29;21.40;;;4.57;;
39276;SDS011;63149;48.086;-1.606;2023-02-01T12:27:10;24.30;;;4.65;;
39276;SDS011;63149;48.086;-1.606;2023-02-01T12:29:59;26.30;;;5.47;;
39276;SDS011;63149;48.086;-1.606;2023-02-01T12:32:44;30.63;;;5.43;;
39276;SDS011;63149;48.086;-1.606;2023-02-01T12:35:31;21.35;;;4.60;;
39276;SDS011;63149;48.086;-1.606;2023-02-01T12:38:24;30.77;;;4.88;;
39276;SDS011;63149;48.086;-1.606;2023-02-01T12:41:13;21.20;;;4.68;;
39276;SDS011;63149;48.086;-1.606;2023-02-01T12:43:51;29.75;;;4.97;;
39276;SDS011;63149;48.086;-1.606;2023-02-01T12:46:22;17.20;;;3.78;;
39276;SDS011;63149;48.086;-1.606;2023-02-01T12:48:54;21.92;;;4.43;;
39276;SDS011;63149;48.086;-1.606;2023-02-01T12:51:27;31.25;;;5.53;;
39276;SDS011;63149;48.086;-1.606;2023-02-01T12:53:59;23.95;;;5.05;;
39276;SDS011;63149;48.086;-1.606;2023-02-01T12:56:32;27.55;;;5.22;;
39276;SDS011;63149;48.086;-1.606;2023-02-01T12:59:04;23.58;;;4.50;;
39276;SDS011;63149;48.086;-1.606;2023-02-01T13:01:39;30.02;;;4.60;;
39276;SDS011;63149;48.086;-1.606;2023-02-01T13:04:10;20.80;;;3.93;;
39276;SDS011;63149;48.086;-1.606;2023-02-01T13:06:43;15.55;;;3.63;;
39276;SDS011;63149;48.086;-1.606;2023-02-01T13:09:17;18.20;;;4.15;;
39276;SDS011;63149;48.086;-1.606;2023-02-01T13:11:49;26.63;;;3.22;;
39276;SDS011;63149;48.086;-1.606;2023-02-01T13:16:52;27.92;;;4.28;;
39276;SDS011;63149;48.086;-1.606;2023-02-01T13:19:27;18.55;;;3.25;;
39276;SDS011;63149;48.086;-1.606;2023-02-01T13:21:57;18.92;;;3.83;;
39276;SDS011;63149;48.086;-1.606;2023-02-01T13:24:30;20.10;;;3.78;;
39276;SDS011;63149;48.086;-1.606;2023-02-01T13:27:01;26.85;;;4.40;;
39276;SDS011;63149;48.086;-1.606;2023-02-01T13:29:28;27.35;;;4.75;;
39276;SDS011;63149;48.086;-1.606;2023-02-01T13:32:00;20.40;;;5.57;;
39276;SDS011;63149;48.086;-1.606;2023-02-01T13:34:46;18.38;;;4.35;;
39276;SDS011;63149;48.086;-1.606;2023-02-01T13:37:35;25.60;;;5.82;;
39276;SDS011;63149;48.086;-1.606;2023-02-01T13:40:31;20.77;;;4.25;;
39276;SDS011;63149;48.086;-1.606;2023-02-01T13:43:10;25.70;;;4.60;;
39276;SDS011;63149;48.086;-1.606;2023-02-01T13:45:44;32.60;;;4.47;;
39276;SDS011;63149;48.086;-1.606;2023-02-01T13:48:18;16.30;;;4.20;;
39276;SDS011;63149;48.086;-1.606;2023-02-01T13:50:50;23.27;;;4.63;;
39276;SDS011;63149;48.086;-1.606;2023-02-01T13:53:22;29.13;;;4.72;;
39276;SDS011;63149;48.086;-1.606;2023-02-01T13:55:57;14.60;;;3.85;;
39276;SDS011;63149;48.086;-1.606;2023-02-01T13:58:31;22.85;;;3.83;;
39276;SDS011;63149;48.086;-1.606;2023-02-01T14:04:02;21.00;;;3.90;;
39276;SDS011;63149;48.086;-1.606;2023-02-01T14:09:31;25.42;;;4.35;;
39276;SDS011;63149;48.086;-1.606;2023-02-01T14:15:18;22.08;;;3.83;;
39276;SDS011;63149;48.086;-1.606;2023-02-01T14:17:48;27.17;;;4.60;;
39276;SDS011;63149;48.086;-1.606;2023-02-01T14:23:17;27.52;;;4.45;;
39276;SDS011;63149;48.086;-1.606;2023-02-01T14:26:09;26.95;;;4.22;;
39276;SDS011;63149;48.086;-1.606;2023-02-01T14:28:40;27.27;;;4.30;;
39276;SDS011;63149;48.086;-1.606;2023-02-01T14:34:10;29.80;;;4.40;;
39276;SDS011;63149;48.086;-1.606;2023-02-01T14:36:43;26.60;;;4.30;;
39276;SDS011;63149;48.086;-1.606;2023-02-01T14:39:20;27.10;;;4.97;;
39276;SDS011;63149;48.086;-1.606;2023-02-01T14:41:52;29.15;;;4.70;;
39276;SDS011;63149;48.086;-1.606;2023-02-01T14:44:23;24.55;;;4.70;;
39276;SDS011;63149;48.086;-1.606;2023-02-01T14:47:09;24.23;;;5.10;;
39276;SDS011;63149;48.086;-1.606;2023-02-01T14:49:54;22.00;;;5.50;;
39276;SDS011;63149;48.086;-1.606;2023-02-01T14:52:28;32.40;;;5.55;;
39276;SDS011;63149;48.086;-1.606;2023-02-01T14:55:00;26.60;;;4.65;;
39276;SDS011;63149;48.086;-1.606;2023-02-01T14:57:31;38.25;;;7.18;;
39276;SDS011;63149;48.086;-1.606;2023-02-01T15:00:07;34.97;;;5.88;;
39276;SDS011;63149;48.086;-1.606;2023-02-01T15:02:43;18.55;;;5.00;;
39276;SDS011;63149;48.086;-1.606;2023-02-01T15:05:28;26.00;;;5.85;;
39276;SDS011;63149;48.086;-1.606;2023-02-01T15:07:58;30.60;;;6.35;;
39276;SDS011;63149;48.086;-1.606;2023-02-01T15:10:31;26.23;;;6.43;;
39276;SDS011;63149;48.086;-1.606;2023-02-01T15:13:05;30.38;;;4.53;;
39276;SDS011;63149;48.086;-1.606;2023-02-01T15:15:32;36.00;;;7.47;;
39276;SDS011;63149;48.086;-1.606;2023-02-01T15:18:02;30.38;;;8.90;;
39276;SDS011;63149;48.086;-1.606;2023-02-01T15:20:30;29.65;;;6.57;;
39276;SDS011;63149;48.086;-1.606;2023-02-01T15:22:59;28.80;;;5.15;;
39276;SDS011;63149;48.086;-1.606;2023-02-01T15:25:28;22.50;;;4.78;;
39276;SDS011;63149;48.086;-1.606;2023-02-01T15:27:56;25.60;;;6.38;;
39276;SDS011;63149;48.086;-1.606;2023-02-01T15:30:25;25.63;;;5.95;;
39276;SDS011;63149;48.086;-1.606;2023-02-01T15:33:05;24.30;;;6.20;;
39276;SDS011;63149;48.086;-1.606;2023-02-01T15:35:37;28.63;;;6.30;;
39276;SDS011;63149;48.086;-1.606;2023-02-01T15:38:21;23.30;;;4.80;;
39276;SDS011;63149;48.086;-1.606;2023-02-01T15:41:01;28.92;;;5.80;;
39276;SDS011;63149;48.086;-1.606;2023-02-01T15:43:30;24.85;;;5.20;;
39276;SDS011;63149;48.086;-1.606;2023-02-01T15:45:59;24.48;;;5.97;;
39276;SDS011;63149;48.086;-1.606;2023-02-01T15:48:31;33.00;;;7.50;;
39276;SDS011;63149;48.086;-1.606;2023-02-01T15:51:02;37.88;;;6.93;;
39276;SDS011;63149;48.086;-1.606;2023-02-01T15:53:30;34.33;;;7.25;;
39276;SDS011;63149;48.086;-1.606;2023-02-01T15:55:58;23.55;;;6.15;;
39276;SDS011;63149;48.086;-1.606;2023-02-01T15:58:27;30.60;;;5.82;;
39276;SDS011;63149;48.086;-1.606;2023-02-01T16:00:57;26.70;;;5.03;;
39276;SDS011;63149;48.086;-1.606;2023-02-01T16:03:28;27.98;;;6.05;;
39276;SDS011;63149;48.086;-1.606;2023-02-01T16:06:05;26.63;;;4.60;;
39276;SDS011;63149;48.086;-1.606;2023-02-01T16:08:33;29.60;;;6.43;;
39276;SDS011;63149;48.086;-1.606;2023-02-01T16:11:14;31.80;;;5.82;;
39276;SDS011;63149;48.086;-1.606;2023-02-01T16:13:48;25.08;;;5.65;;
39276;SDS011;63149;48.086;-1.606;2023-02-01T16:16:15;21.63;;;5.43;;
39276;SDS011;63149;48.086;-1.606;2023-02-01T16:18:44;36.40;;;5.85;;
39276;SDS011;63149;48.086;-1.606;2023-02-01T16:21:11;23.63;;;5.05;;
39276;SDS011;63149;48.086;-1.606;2023-02-01T16:23:38;23.85;;;5.82;;
39276;SDS011;63149;48.086;-1.606;2023-02-01T16:26:05;25.80;;;4.88;;
39276;SDS011;63149;48.086;-1.606;2023-02-01T16:28:32;26.23;;;4.75;;
39276;SDS011;63149;48.086;-1.606;2023-02-01T16:30:59;26.40;;;5.05;;
39276;SDS011;63149;48.086;-1.606;2023-02-01T16:33:27;19.98;;;4.82;;
39276;SDS011;63149;48.086;-1.606;2023-02-01T16:35:56;23.13;;;4.90;;
39276;SDS011;63149;48.086;-1.606;2023-02-01T16:38:27;17.55;;;4.45;;
39276;SDS011;63149;48.086;-1.606;2023-02-01T16:40:54;23.50;;;5.05;;
39276;SDS011;63149;48.086;-1.606;2023-02-01T16:43:23;21.20;;;5.25;;
39276;SDS011;63149;48.086;-1.606;2023-02-01T16:45:52;31.33;;;6.68;;
39276;SDS011;63149;48.086;-1.606;2023-02-01T16:48:23;35.08;;;9.55;;
39276;SDS011;63149;48.086;-1.606;2023-02-01T16:50:52;23.38;;;7.28;;
39276;SDS011;63149;48.086;-1.606;2023-02-01T16:53:22;32.42;;;7.05;;
39276;SDS011;63149;48.086;-1.606;2023-02-01T16:55:52;23.30;;;6.40;;
39276;SDS011;63149;48.086;-1.606;2023-02-01T16:58:20;32.90;;;6.07;;
39276;SDS011;63149;48.086;-1.606;2023-02-01T17:00:47;26.88;;;5.80;;
39276;SDS011;63149;48.086;-1.606;2023-02-01T17:03:14;31.20;;;7.75;;
39276;SDS011;63149;48.086;-1.606;2023-02-01T17:05:43;32.47;;;7.68;;
39276;SDS011;63149;48.086;-1.606;2023-02-01T17:08:12;33.22;;;8.82;;
39276;SDS011;63149;48.086;-1.606;2023-02-01T17:10:45;32.97;;;9.13;;
39276;SDS011;63149;48.086;-1.606;2023-02-01T17:13:12;27.17;;;7.18;;
39276;SDS011;63149;48.086;-1.606;2023-02-01T17:15:47;25.00;;;6.47;;
39276;SDS011;63149;48.086;-1.606;2023-02-01T17:18:18;22.63;;;5.95;;
39276;SDS011;63149;48.086;-1.606;2023-02-01T17:20:45;31.08;;;7.32;;
39276;SDS011;63149;48.086;-1.606;2023-02-01T17:23:13;26.45;;;5.60;;
39276;SDS011;63149;48.086;-1.606;2023-02-01T17:25:40;32.80;;;6.40;;
39276;SDS011;63149;48.086;-1.606;2023-02-01T17:28:08;36.20;;;8.27;;
39276;SDS011;63149;48.086;-1.606;2023-02-01T17:30:36;29.80;;;7.28;;
39276;SDS011;63149;48.086;-1.606;2023-02-01T17:33:06;30.58;;;6.18;;
39276;SDS011;63149;48.086;-1.606;2023-02-01T17:35:42;19.70;;;6.43;;
39276;SDS011;63149;48.086;-1.606;2023-02-01T17:38:10;40.72;;;5.75;;
39276;SDS011;63149;48.086;-1.606;2023-02-01T17:40:37;30.17;;;5.65;;
39276;SDS011;63149;48.086;-1.606;2023-02-01T17:43:04;25.75;;;6.05;;
39276;SDS011;63149;48.086;-1.606;2023-02-01T17:45:34;29.63;;;6.85;;
39276;SDS011;63149;48.086;-1.606;2023-02-01T17:48:05;26.27;;;5.32;;
39276;SDS011;63149;48.086;-1.606;2023-02-01T17:50:34;30.58;;;6.60;;
39276;SDS011;63149;48.086;-1.606;2023-02-01T17:53:03;34.45;;;6.25;;
39276;SDS011;63149;48.086;-1.606;2023-02-01T17:55:34;34.28;;;5.80;;
39276;SDS011;63149;48.086;-1.606;2023-02-01T17:58:01;38.95;;;7.93;;
39276;SDS011;63149;48.086;-1.606;2023-02-01T18:00:28;24.35;;;7.00;;
39276;SDS011;63149;48.086;-1.606;2023-02-01T18:02:57;24.40;;;7.07;;
39276;SDS011;63149;48.086;-1.606;2023-02-01T18:05:25;34.63;;;8.45;;
39276;SDS011;63149;48.086;-1.606;2023-02-01T18:07:54;28.90;;;7.60;;
39276;SDS011;63149;48.086;-1.606;2023-02-01T18:10:21;30.88;;;6.53;;
39276;SDS011;63149;48.086;-1.606;2023-02-01T18:12:48;25.98;;;6.40;;
39276;SDS011;63149;48.086;-1.606;2023-02-01T18:26:32;27.92;;;8.52;;
39276;SDS011;63149;48.086;-1.606;2023-02-01T18:28:59;30.48;;;9.20;;
39276;SDS011;63149;48.086;-1.606;2023-02-01T18:31:26;30.63;;;10.88;;
39276;SDS011;63149;48.086;-1.606;2023-02-01T18:33:56;33.40;;;11.45;;
39276;SDS011;63149;48.086;-1.606;2023-02-01T18:36:25;32.17;;;12.20;;
39276;SDS011;63149;48.086;-1.606;2023-02-01T18:38:54;25.15;;;9.35;;
39276;SDS011;63149;48.086;-1.606;2023-02-01T18:41:22;25.02;;;9.38;;
39276;SDS011;63149;48.086;-1.606;2023-02-01T18:43:51;31.63;;;9.82;;
39276;SDS011;63149;48.086;-1.606;2023-02-01T18:46:18;32.35;;;10.18;;
39276;SDS011;63149;48.086;-1.606;2023-02-01T18:48:45;38.10;;;11.65;;
39276;SDS011;63149;48.086;-1.606;2023-02-01T18:51:13;33.10;;;11.13;;
39276;SDS011;63149;48.086;-1.606;2023-02-01T18:56:11;35.30;;;12.18;;
39276;SDS011;63149;48.086;-1.606;2023-02-01T18:58:39;45.67;;;13.50;;
39276;SDS011;63149;48.086;-1.606;2023-02-01T19:01:08;33.95;;;14.65;;
39276;SDS011;63149;48.086;-1.606;2023-02-01T19:03:39;37.38;;;13.65;;
39276;SDS011;63149;48.086;-1.606;2023-02-01T19:06:06;35.67;;;12.73;;
39276;SDS011;63149;48.086;-1.606;2023-02-01T19:08:33;34.80;;;12.75;;
39276;SDS011;63149;48.086;-1.606;2023-02-01T19:11:03;30.23;;;10.48;;
39276;SDS011;63149;48.086;-1.606;2023-02-01T19:13:30;37.00;;;11.63;;
39276;SDS011;63149;48.086;-1.606;2023-02-01T19:15:58;36.60;;;13.25;;
39276;SDS011;63149;48.086;-1.606;2023-02-01T19:18:31;32.83;;;14.00;;
39276;SDS011;63149;48.086;-1.606;2023-02-01T19:21:01;38.47;;;13.75;;
39276;SDS011;63149;48.086;-1.606;2023-02-01T19:23:28;40.88;;;17.42;;
39276;SDS011;63149;48.086;-1.606;2023-02-01T19:25:55;38.88;;;14.55;;
39276;SDS011;63149;48.086;-1.606;2023-02-01T19:28:22;40.65;;;13.40;;
39276;SDS011;63149;48.086;-1.606;2023-02-01T19:30:49;39.75;;;13.38;;
39276;SDS011;63149;48.086;-1.606;2023-02-01T19:33:25;31.38;;;11.32;;
39276;SDS011;63149;48.086;-1.606;2023-02-01T19:35:56;39.03;;;12.13;;
39276;SDS011;63149;48.086;-1.606;2023-02-01T19:38:24;36.17;;;11.38;;
39276;SDS011;63149;48.086;-1.606;2023-02-01T19:40:51;32.95;;;9.95;;
39276;SDS011;63149;48.086;-1.606;2023-02-01T19:43:20;38.13;;;9.15;;
39276;SDS011;63149;48.086;-1.606;2023-02-01T19:45:47;26.33;;;8.95;;
39276;SDS011;63149;48.086;-1.606;2023-02-01T19:48:14;34.25;;;9.73;;
39276;SDS011;63149;48.086;-1.606;2023-02-01T19:50:42;36.45;;;7.85;;
39276;SDS011;63149;48.086;-1.606;2023-02-01T19:53:11;35.60;;;9.27;;
39276;SDS011;63149;48.086;-1.606;2023-02-01T19:55:38;35.75;;;10.10;;
39276;SDS011;63149;48.086;-1.606;2023-02-01T19:58:09;34.45;;;7.82;;
39276;SDS011;63149;48.086;-1.606;2023-02-01T20:02:23;27.67;;;7.15;;
39276;SDS011;63149;48.086;-1.606;2023-02-01T20:04:52;25.05;;;7.00;;
39276;SDS011;63149;48.086;-1.606;2023-02-01T20:07:19;21.30;;;6.55;;
39276;SDS011;63149;48.086;-1.606;2023-02-01T20:09:46;25.30;;;6.72;;
39276;SDS011;63149;48.086;-1.606;2023-02-01T20:12:13;25.48;;;6.57;;
39276;SDS011;63149;48.086;-1.606;2023-02-01T20:14:40;21.95;;;6.88;;
39276;SDS011;63149;48.086;-1.606;2023-02-01T20:17:07;21.35;;;7.13;;
39276;SDS011;63149;48.086;-1.606;2023-02-01T20:19:39;21.88;;;6.10;;
39276;SDS011;63149;48.086;-1.606;2023-02-01T20:22:06;33.42;;;8.15;;
39276;SDS011;63149;48.086;-1.606;2023-02-01T20:24:33;22.20;;;6.25;;
39276;SDS011;63149;48.086;-1.606;2023-02-01T20:27:00;23.92;;;6.55;;
39276;SDS011;63149;48.086;-1.606;2023-02-01T20:29:27;26.52;;;6.60;;
39276;SDS011;63149;48.086;-1.606;2023-02-01T20:31:54;24.05;;;6.63;;
39276;SDS011;63149;48.086;-1.606;2023-02-01T20:34:21;14.20;;;6.28;;
39276;SDS011;63149;48.086;-1.606;2023-02-01T20:36:49;25.95;;;6.97;;
39276;SDS011;63149;48.086;-1.606;2023-02-01T20:39:16;21.95;;;6.78;;
39276;SDS011;63149;48.086;-1.606;2023-02-01T20:41:43;30.98;;;6.32;;
39276;SDS011;63149;48.086;-1.606;2023-02-01T20:44:10;26.27;;;7.13;;
39276;SDS011;63149;48.086;-1.606;2023-02-01T20:46:37;30.05;;;9.10;;
39276;SDS011;63149;48.086;-1.606;2023-02-01T20:49:04;24.85;;;7.03;;
39276;SDS011;63149;48.086;-1.606;2023-02-01T20:51:30;29.27;;;7.85;;
39276;SDS011;63149;48.086;-1.606;2023-02-01T20:53:59;28.15;;;8.68;;
39276;SDS011;63149;48.086;-1.606;2023-02-01T20:56:26;23.85;;;6.22;;
39276;SDS011;63149;48.086;-1.606;2023-02-01T20:58:53;27.05;;;7.13;;
39276;SDS011;63149;48.086;-1.606;2023-02-01T21:01:26;26.77;;;7.30;;
39276;SDS011;63149;48.086;-1.606;2023-02-01T21:03:54;21.67;;;6.90;;
39276;SDS011;63149;48.086;-1.606;2023-02-01T21:06:21;19.80;;;6.63;;
39276;SDS011;63149;48.086;-1.606;2023-02-01T21:08:48;26.17;;;6.10;;
39276;SDS011;63149;48.086;-1.606;2023-02-01T21:11:16;23.98;;;6.88;;
39276;SDS011;63149;48.086;-1.606;2023-02-01T21:13:44;22.08;;;6.47;;
39276;SDS011;63149;48.086;-1.606;2023-02-01T21:16:18;28.67;;;6.18;;
39276;SDS011;63149;48.086;-1.606;2023-02-01T21:18:48;26.80;;;6.43;;
39276;SDS011;63149;48.086;-1.606;2023-02-01T21:21:15;26.38;;;7.50;;
39276;SDS011;63149;48.086;-1.606;2023-02-01T21:23:42;34.22;;;7.32;;
39276;SDS011;63149;48.086;-1.606;2023-02-01T21:26:10;25.40;;;5.70;;
39276;SDS011;63149;48.086;-1.606;2023-02-01T21:28:38;19.00;;;4.40;;